Montezuma, Colorado
Current Conditions -  °F | °C
As of 12:35 PM on Friday 28 Nov 2014 (Local Time) from KCCU Reporting Station
Haze Haze  
Wind Chill: 24°   Ceiling: 700
Heat Index: 37°   Visibility: 1.7mi
Dew Point:   Wind: 33mph
Humidity: 24%   Direction: 250°WSW
Pressure: 30.24"   Gusts: 47mph
Location:  39.6522°N, 106.121°W
Report Text: KCCU 281935Z AUTO 25029G41KT 1 3/4SM HZ VV007 03/M16 A3024 RMK AO2 VIS 1V5
Loading
Personal Weather Stations






























Interactive Weather Map New forecast layout! Learn more

10-Day Weather Forecast

Advertisements
Track Severe Weather on mobile